Maulden, Kentucky
Current Conditions -  °F | °C
As of 7:53 AM on Thursday 18 Dec 2014 (Local Time) from KLOZ Reporting Station
Overcast Overcast  
Wind Chill: -2°   Ceiling: 11000
Heat Index: -2°   Visibility: 8mi
Dew Point: -4°   Wind: 0mph
Humidity: 82%   Direction: NA
Pressure: 30.24"   Gusts: NA
Location:  37.346°N, 83.8503°W
Report Text: KLOZ 181253Z AUTO 00000KT 8SM FEW100 OVC110 M02/M04 A3024 RMK AO2 SLP252 T10171044
Loading
Personal Weather Stations






























Interactive Weather Map New forecast layout! Learn more

10-Day Weather Forecast

Advertisements
Track Severe Weather on mobile